createdAt,value
2023-05-28T00:00:09.551Z,1003.63
2023-05-28T00:01:05.252Z,1003.62
2023-05-28T00:02:04.231Z,1003.67
2023-05-28T00:03:04.333Z,1003.65
2023-05-28T00:04:04.371Z,1003.66
2023-05-28T00:05:04.189Z,1003.70
2023-05-28T00:06:04.205Z,1003.65
2023-05-28T00:07:04.208Z,1003.69
2023-05-28T00:08:04.159Z,1003.62
2023-05-28T00:09:04.161Z,1003.67
2023-05-28T00:10:04.152Z,1003.70
2023-05-28T00:11:05.493Z,1003.64
2023-05-28T00:12:04.105Z,1003.62
2023-05-28T00:13:04.124Z,1003.64
2023-05-28T00:14:04.099Z,1003.71
2023-05-28T00:15:04.097Z,1003.63
2023-05-28T00:16:04.140Z,1003.63
2023-05-28T00:17:04.067Z,1003.63
2023-05-28T00:18:04.171Z,1003.61
2023-05-28T00:19:04.060Z,1003.61
2023-05-28T00:20:04.050Z,1003.64
2023-05-28T00:21:04.043Z,1003.57
2023-05-28T00:22:04.036Z,1003.58
2023-05-28T00:23:03.999Z,1003.56
2023-05-28T00:24:03.995Z,1003.51
2023-05-28T00:25:03.972Z,1003.55
2023-05-28T00:26:03.973Z,1003.51
2023-05-28T00:27:03.987Z,1003.53
2023-05-28T00:28:03.937Z,1003.51
2023-05-28T00:29:03.929Z,1003.48
2023-05-28T00:30:03.932Z,1003.49
2023-05-28T00:31:03.921Z,1003.50
2023-05-28T00:32:03.962Z,1003.47
2023-05-28T00:33:04.097Z,1003.53
2023-05-28T00:34:03.894Z,1003.51
2023-05-28T00:35:03.869Z,1003.49
2023-05-28T00:36:03.847Z,1003.53
2023-05-28T00:37:03.828Z,1003.49
2023-05-28T00:38:03.834Z,1003.49
2023-05-28T00:39:03.819Z,1003.48
2023-05-28T00:40:03.798Z,1003.47
2023-05-28T00:41:03.827Z,1003.45
2023-05-28T00:42:03.807Z,1003.49
2023-05-28T00:43:03.756Z,1003.49
2023-05-28T00:44:03.767Z,1003.45
2023-05-28T00:45:03.751Z,1003.50
2023-05-28T00:46:03.772Z,1003.50
2023-05-28T00:47:03.745Z,1003.46
2023-05-28T00:48:03.748Z,1003.47
2023-05-28T00:49:03.680Z,1003.46
2023-05-28T00:50:03.673Z,1003.49
2023-05-28T00:51:03.669Z,1003.51
2023-05-28T00:52:03.706Z,1003.48
2023-05-28T00:53:03.669Z,1003.49
2023-05-28T00:54:03.631Z,1003.48
2023-05-28T00:55:03.641Z,1003.50
2023-05-28T00:56:03.619Z,1003.41
2023-05-28T00:57:03.629Z,1003.43
2023-05-28T00:58:03.624Z,1003.40
2023-05-28T00:59:03.587Z,1003.43
2023-05-28T01:00:03.551Z,1003.40
2023-05-28T01:01:03.607Z,1003.43
2023-05-28T01:02:03.561Z,1003.39
2023-05-28T01:03:03.595Z,1003.41
2023-05-28T01:04:03.549Z,1003.36
2023-05-28T01:05:03.497Z,1003.37
2023-05-28T01:06:03.475Z,1003.36
2023-05-28T01:07:03.505Z,1003.38
2023-05-28T01:08:03.510Z,1003.35
2023-05-28T01:09:03.511Z,1003.35
2023-05-28T01:10:03.429Z,1003.35
2023-05-28T01:11:03.438Z,1003.35
2023-05-28T01:12:03.421Z,1003.36
2023-05-28T01:13:03.458Z,1003.29
2023-05-28T01:14:03.383Z,1003.27
2023-05-28T01:15:03.445Z,1003.24
2023-05-28T01:16:03.384Z,1003.28
2023-05-28T01:17:03.429Z,1003.26
2023-05-28T01:18:03.445Z,1003.22
2023-05-28T01:19:03.356Z,1003.24
2023-05-28T01:20:03.365Z,1003.27
2023-05-28T01:21:03.357Z,1003.25
2023-05-28T01:22:03.316Z,1003.30
2023-05-28T01:23:03.294Z,1003.28
2023-05-28T01:24:03.301Z,1003.30
2023-05-28T01:25:03.258Z,1003.31
2023-05-28T01:26:03.245Z,1003.33
2023-05-28T01:27:03.262Z,1003.33
2023-05-28T01:28:03.260Z,1003.32
2023-05-28T01:29:03.236Z,1003.31
2023-05-28T01:30:03.229Z,1003.33
2023-05-28T01:31:03.242Z,1003.34
2023-05-28T01:32:03.221Z,1003.32
2023-05-28T01:33:03.190Z,1003.33
2023-05-28T01:34:03.158Z,1003.25
2023-05-28T01:35:03.148Z,1003.26
2023-05-28T01:36:03.140Z,1003.31
2023-05-28T01:37:03.140Z,1003.29
2023-05-28T01:38:03.138Z,1003.30
2023-05-28T01:39:03.134Z,1003.28
2023-05-28T01:40:03.109Z,1003.25
2023-05-28T01:41:03.102Z,1003.29
2023-05-28T01:42:03.093Z,1003.24
2023-05-28T01:43:03.050Z,1003.25
2023-05-28T01:44:03.057Z,1003.26
2023-05-28T01:45:03.067Z,1003.24
2023-05-28T01:46:03.075Z,1003.18
2023-05-28T01:47:03.034Z,1003.19
2023-05-28T01:48:03.053Z,1003.17
2023-05-28T01:49:02.988Z,1003.17
2023-05-28T01:50:02.975Z,1003.15
2023-05-28T01:51:02.959Z,1003.13
2023-05-28T01:52:02.980Z,1003.14
2023-05-28T01:53:02.934Z,1003.17
2023-05-28T01:54:02.941Z,1003.16
2023-05-28T01:55:02.902Z,1003.19
2023-05-28T01:56:02.932Z,1003.15
2023-05-28T01:57:02.923Z,1003.13
2023-05-28T01:58:02.924Z,1003.12
2023-05-28T01:59:02.902Z,1003.14
2023-05-28T02:00:02.875Z,1003.16
2023-05-28T02:01:02.851Z,1003.13
2023-05-28T02:02:02.906Z,1003.14
2023-05-28T02:03:02.947Z,1003.09
2023-05-28T02:04:02.962Z,1003.11
2023-05-28T02:05:02.811Z,1003.13
2023-05-28T02:06:02.805Z,1003.13
2023-05-28T02:07:02.815Z,1003.13
2023-05-28T02:08:02.766Z,1003.10
2023-05-28T02:09:02.770Z,1003.12
2023-05-28T02:10:02.763Z,1003.11
2023-05-28T02:11:02.736Z,1003.12
2023-05-28T02:12:02.721Z,1003.12
2023-05-28T02:13:02.720Z,1003.12
2023-05-28T02:14:02.702Z,1003.15
2023-05-28T02:15:02.687Z,1003.11
2023-05-28T02:16:02.741Z,1003.14
2023-05-28T02:17:02.673Z,1003.10
2023-05-28T02:18:02.735Z,1003.13
2023-05-28T02:19:02.629Z,1003.13
2023-05-28T02:20:02.672Z,1003.13
2023-05-28T02:21:02.623Z,1003.09
2023-05-28T02:22:02.609Z,1003.10
2023-05-28T02:23:02.636Z,1003.12
2023-05-28T02:24:02.599Z,1003.17
2023-05-28T02:25:02.578Z,1003.14
2023-05-28T02:26:02.557Z,1003.08
2023-05-28T02:27:02.549Z,1003.06
2023-05-28T02:28:02.533Z,1003.06
2023-05-28T02:29:02.596Z,1003.08
2023-05-28T02:30:02.523Z,1003.04
2023-05-28T02:31:02.542Z,1003.06
2023-05-28T02:32:02.523Z,1003.08
2023-05-28T02:33:02.552Z,1003.08
2023-05-28T02:34:02.474Z,1003.08
2023-05-28T02:35:02.486Z,1003.06
2023-05-28T02:36:02.461Z,1003.06
2023-05-28T02:37:02.458Z,1003.09
2023-05-28T02:38:02.417Z,1003.09
2023-05-28T02:39:02.438Z,1003.10
2023-05-28T02:40:02.397Z,1003.07
2023-05-28T02:41:02.420Z,1003.07
2023-05-28T02:42:02.382Z,1003.09
2023-05-28T02:43:02.372Z,1003.09
2023-05-28T02:44:02.360Z,1003.01
2023-05-28T02:45:02.370Z,1002.98
2023-05-28T02:46:02.402Z,1003.02
2023-05-28T02:47:02.348Z,1003.06
2023-05-28T02:48:02.410Z,1003.13
2023-05-28T02:49:02.283Z,1003.10
2023-05-28T02:50:02.299Z,1003.10
2023-05-28T02:51:02.309Z,1003.12
2023-05-28T02:52:02.289Z,1003.17
2023-05-28T02:53:02.274Z,1003.16
2023-05-28T02:54:02.301Z,1003.18
2023-05-28T02:55:02.227Z,1003.16
2023-05-28T02:56:02.269Z,1003.15
2023-05-28T02:57:02.253Z,1003.16
2023-05-28T02:58:02.229Z,1003.18
2023-05-28T02:59:02.169Z,1003.16
2023-05-28T03:00:02.211Z,1003.17
2023-05-28T03:01:02.206Z,1003.19
2023-05-28T03:02:02.149Z,1003.18
2023-05-28T03:03:02.235Z,1003.13
2023-05-28T03:04:02.171Z,1003.14
2023-05-28T03:05:02.115Z,1003.13
2023-05-28T03:06:02.099Z,1003.16
2023-05-28T03:07:02.092Z,1003.14
2023-05-28T03:08:02.087Z,1003.15
2023-05-28T03:09:02.068Z,1003.15
2023-05-28T03:10:02.081Z,1003.15
2023-05-28T03:11:02.035Z,1003.17
2023-05-28T03:12:02.044Z,1003.18
2023-05-28T03:13:03.088Z,1003.21
2023-05-28T03:14:02.013Z,1003.18
2023-05-28T03:15:02.033Z,1003.26
2023-05-28T03:16:01.970Z,1003.18
2023-05-28T03:17:02.083Z,1003.26
2023-05-28T03:18:02.007Z,1003.21
2023-05-28T03:19:01.940Z,1003.25
2023-05-28T03:20:01.971Z,1003.26
2023-05-28T03:21:01.933Z,1003.26
2023-05-28T03:22:01.933Z,1003.32
2023-05-28T03:23:01.908Z,1003.34
2023-05-28T03:24:01.912Z,1003.31
2023-05-28T03:25:01.905Z,1003.31
2023-05-28T03:26:01.856Z,1003.37
2023-05-28T03:27:01.883Z,1003.33
2023-05-28T03:28:01.846Z,1003.33
2023-05-28T03:29:01.860Z,1003.35
2023-05-28T03:30:01.844Z,1003.37
2023-05-28T03:31:01.868Z,1003.34
2023-05-28T03:32:01.799Z,1003.33
2023-05-28T03:33:01.866Z,1003.33
2023-05-28T03:34:01.798Z,1003.37
2023-05-28T03:35:01.769Z,1003.39
2023-05-28T03:36:01.832Z,1003.36
2023-05-28T03:37:01.751Z,1003.41
2023-05-28T03:38:01.783Z,1003.40
2023-05-28T03:39:01.724Z,1003.42
2023-05-28T03:40:01.723Z,1003.47
2023-05-28T03:41:01.726Z,1003.46
2023-05-28T03:42:01.696Z,1003.42
2023-05-28T03:43:01.693Z,1003.43
2023-05-28T03:44:01.665Z,1003.44
2023-05-28T03:45:01.673Z,1003.40
2023-05-28T03:46:01.699Z,1003.45
2023-05-28T03:47:01.647Z,1003.44
2023-05-28T03:48:01.658Z,1003.39
2023-05-28T03:49:01.623Z,1003.41
2023-05-28T03:50:01.605Z,1003.42
2023-05-28T03:51:01.599Z,1003.37
2023-05-28T03:52:01.560Z,1003.39
2023-05-28T03:53:01.571Z,1003.43
2023-05-28T03:54:01.551Z,1003.38
2023-05-28T03:55:01.527Z,1003.36
2023-05-28T03:56:01.563Z,1003.34
2023-05-28T03:57:01.507Z,1003.34
2023-05-28T03:58:01.522Z,1003.31
2023-05-28T03:59:01.499Z,1003.28
2023-05-28T04:00:01.481Z,1003.27
2023-05-28T04:01:01.502Z,1003.25
2023-05-28T04:02:01.475Z,1003.26
2023-05-28T04:03:01.574Z,1003.28
2023-05-28T04:04:01.616Z,1003.27
2023-05-28T04:05:01.488Z,1003.23
2023-05-28T04:06:01.414Z,1003.24
2023-05-28T04:07:01.440Z,1003.23
2023-05-28T04:08:01.411Z,1003.22
2023-05-28T04:09:01.390Z,1003.19
2023-05-28T04:10:01.398Z,1003.25
2023-05-28T04:11:01.405Z,1003.19
2023-05-28T04:12:01.326Z,1003.23
2023-05-28T04:13:01.329Z,1003.16
2023-05-28T04:14:01.331Z,1003.17
2023-05-28T04:15:01.331Z,1003.16
2023-05-28T04:16:01.295Z,1003.19
2023-05-28T04:17:01.346Z,1003.13
2023-05-28T04:18:01.439Z,1003.14
2023-05-28T04:19:01.287Z,1003.15
2023-05-28T04:20:01.332Z,1003.14
2023-05-28T04:21:01.263Z,1003.18
2023-05-28T04:22:01.208Z,1003.14
2023-05-28T04:23:01.246Z,1003.16
2023-05-28T04:24:01.224Z,1003.11
2023-05-28T04:25:01.218Z,1003.10
2023-05-28T04:26:01.176Z,1003.13
2023-05-28T04:27:01.203Z,1003.14
2023-05-28T04:28:01.171Z,1003.18
2023-05-28T04:29:01.163Z,1003.14
2023-05-28T04:30:01.168Z,1003.16
2023-05-28T04:31:01.155Z,1003.15
2023-05-28T04:32:01.180Z,1003.16
2023-05-28T04:33:01.153Z,1003.18
2023-05-28T04:34:01.088Z,1003.15
2023-05-28T04:35:01.086Z,1003.16
2023-05-28T04:36:01.113Z,1003.14
2023-05-28T04:37:01.039Z,1003.21
2023-05-28T04:38:01.061Z,1003.19
2023-05-28T04:39:01.023Z,1003.19
2023-05-28T04:40:01.017Z,1003.18
2023-05-28T04:41:01.018Z,1003.13
2023-05-28T04:42:01.004Z,1003.14
2023-05-28T04:43:01.017Z,1003.17
2023-05-28T04:44:00.984Z,1003.16
2023-05-28T04:45:01.015Z,1003.16
2023-05-28T04:46:00.950Z,1003.18
2023-05-28T04:47:00.940Z,1003.21
2023-05-28T04:48:00.984Z,1003.23
2023-05-28T04:49:00.920Z,1003.20
2023-05-28T04:50:00.887Z,1003.26
2023-05-28T04:51:00.905Z,1003.23
2023-05-28T04:52:00.915Z,1003.24
2023-05-28T04:53:00.857Z,1003.22
2023-05-28T04:54:00.881Z,1003.22
2023-05-28T04:55:00.858Z,1003.18
2023-05-28T04:56:00.821Z,1003.16
2023-05-28T04:57:00.834Z,1003.17
2023-05-28T04:58:00.817Z,1003.17
2023-05-28T04:59:00.810Z,1003.13
2023-05-28T05:00:00.791Z,1003.15
2023-05-28T05:01:00.798Z,1003.13
2023-05-28T05:02:00.843Z,1003.14
2023-05-28T05:03:00.827Z,1003.12
2023-05-28T05:04:00.775Z,1003.13
2023-05-28T05:05:00.749Z,1003.17
2023-05-28T05:06:00.745Z,1003.15
2023-05-28T05:07:00.728Z,1003.11
2023-05-28T05:08:00.684Z,1003.13
2023-05-28T05:09:00.810Z,1003.16
2023-05-28T05:10:00.709Z,1003.16
2023-05-28T05:11:00.660Z,1003.13
2023-05-28T05:12:00.630Z,1003.12
2023-05-28T05:13:00.674Z,1003.09
2023-05-28T05:14:00.620Z,1003.12
2023-05-28T05:15:00.668Z,1003.09
2023-05-28T05:16:00.646Z,1003.17
2023-05-28T05:17:00.593Z,1003.17
2023-05-28T05:18:00.616Z,1003.18
2023-05-28T05:19:00.591Z,1003.09
2023-05-28T05:20:00.599Z,1003.12
2023-05-28T05:21:00.549Z,1003.06
2023-05-28T05:22:00.548Z,1003.07
2023-05-28T05:23:00.561Z,1003.10
2023-05-28T05:24:00.522Z,1003.11
2023-05-28T05:25:00.491Z,1003.09
2023-05-28T05:26:00.506Z,1003.03
2023-05-28T05:27:00.465Z,1003.00
2023-05-28T05:28:00.481Z,1003.06
2023-05-28T05:29:00.469Z,1003.07
2023-05-28T05:30:00.428Z,1003.13
2023-05-28T05:31:00.484Z,1003.09
2023-05-28T05:32:00.455Z,1003.12
2023-05-28T05:33:00.421Z,1003.15
2023-05-28T05:34:00.390Z,1003.09
2023-05-28T05:35:00.371Z,1003.06
2023-05-28T05:36:00.384Z,1003.03
2023-05-28T05:37:00.370Z,1003.04
2023-05-28T05:38:00.371Z,1003.07
2023-05-28T05:39:00.349Z,1003.01
2023-05-28T05:40:00.306Z,1003.03
2023-05-28T05:41:00.331Z,1003.05
2023-05-28T05:42:00.331Z,1003.09
2023-05-28T05:43:00.330Z,1003.06
2023-05-28T05:44:00.257Z,1003.07
2023-05-28T05:45:00.285Z,1003.06
2023-05-28T05:46:00.388Z,1003.04
2023-05-28T05:47:00.250Z,1003.10
2023-05-28T05:48:00.261Z,1003.10
2023-05-28T05:49:00.273Z,1003.07
2023-05-28T05:50:00.228Z,1003.09
2023-05-28T05:51:00.192Z,1003.17
2023-05-28T05:52:00.196Z,1003.10
2023-05-28T05:53:00.171Z,1003.08
2023-05-28T05:54:00.212Z,1003.13
2023-05-28T05:55:00.189Z,1003.11
2023-05-28T05:56:00.157Z,1003.12
2023-05-28T05:57:00.211Z,1003.11
2023-05-28T05:58:00.165Z,1003.08
2023-05-28T05:59:00.142Z,1003.10
2023-05-28T06:00:00.087Z,1003.06
2023-05-28T06:01:00.107Z,1003.06
2023-05-28T06:02:01.936Z,1003.07
2023-05-28T06:03:00.083Z,1003.06
2023-05-28T06:04:00.098Z,1003.06
2023-05-28T06:05:00.073Z,1003.05
2023-05-28T06:06:00.321Z,1003.07
2023-05-28T06:07:00.028Z,1003.07
2023-05-28T06:07:59.998Z,1003.01
2023-05-28T06:09:00.010Z,1003.00
2023-05-28T06:09:59.970Z,1003.00
2023-05-28T06:10:59.968Z,1003.03
2023-05-28T06:11:59.979Z,1003.01
2023-05-28T06:12:59.945Z,1002.98
2023-05-28T06:13:59.940Z,1003.01
2023-05-28T06:14:59.942Z,1003.01
2023-05-28T06:15:59.929Z,1002.98
2023-05-28T06:16:59.914Z,1002.97
2023-05-28T06:17:59.981Z,1002.99
2023-05-28T06:18:59.880Z,1002.95
2023-05-28T06:19:59.890Z,1002.95
2023-05-28T06:20:59.863Z,1002.91
2023-05-28T06:21:59.858Z,1002.86
2023-05-28T06:22:59.821Z,1002.88
2023-05-28T06:23:59.844Z,1002.90
2023-05-28T06:24:59.804Z,1002.87
2023-05-28T06:25:59.843Z,1002.84
2023-05-28T06:26:59.800Z,1002.84
2023-05-28T06:27:59.770Z,1002.84
2023-05-28T06:28:59.778Z,1002.82
2023-05-28T06:29:59.747Z,1002.80
2023-05-28T06:30:59.764Z,1002.77
2023-05-28T06:31:59.751Z,1002.79
2023-05-28T06:32:59.768Z,1002.76
2023-05-28T06:33:59.689Z,1002.74
2023-05-28T06:34:59.734Z,1002.74
2023-05-28T06:35:59.661Z,1002.81
2023-05-28T06:36:59.688Z,1002.76
2023-05-28T06:37:59.653Z,1002.81
2023-05-28T06:38:59.638Z,1002.78
2023-05-28T06:39:59.655Z,1002.79
2023-05-28T06:40:59.621Z,1002.81
2023-05-28T06:41:59.602Z,1002.78
2023-05-28T06:42:59.618Z,1002.78
2023-05-28T06:43:59.592Z,1002.77
2023-05-28T06:44:59.589Z,1002.71
2023-05-28T06:45:59.571Z,1002.75
2023-05-28T06:46:59.586Z,1002.75
2023-05-28T06:47:59.630Z,1002.75
2023-05-28T06:48:59.553Z,1002.73
2023-05-28T06:49:59.504Z,1002.70
2023-05-28T06:50:59.521Z,1002.65
2023-05-28T06:51:59.497Z,1002.63
2023-05-28T06:52:59.507Z,1002.62
2023-05-28T06:53:59.506Z,1002.59
2023-05-28T06:54:59.467Z,1002.61
2023-05-28T06:55:59.490Z,1002.56
2023-05-28T06:56:59.422Z,1002.57
2023-05-28T06:57:59.420Z,1002.57
2023-05-28T06:58:59.467Z,1002.54
2023-05-28T06:59:59.430Z,1002.57
2023-05-28T07:00:59.396Z,1002.57
2023-05-28T07:01:59.462Z,1002.59
2023-05-28T07:02:59.385Z,1002.60
2023-05-28T07:03:59.384Z,1002.61
2023-05-28T07:04:59.395Z,1002.56
2023-05-28T07:05:59.495Z,1002.59
2023-05-28T07:06:59.341Z,1002.59
2023-05-28T07:07:59.340Z,1002.57
2023-05-28T07:08:59.301Z,1002.56
2023-05-28T07:09:59.283Z,1002.55
2023-05-28T07:10:59.329Z,1002.57
2023-05-28T07:11:59.264Z,1002.50
2023-05-28T07:12:59.274Z,1002.50
2023-05-28T07:13:59.269Z,1002.54
2023-05-28T07:14:59.245Z,1002.51
2023-05-28T07:15:59.519Z,1002.52
2023-05-28T07:16:59.281Z,1002.54
2023-05-28T07:17:59.284Z,1002.53
2023-05-28T07:18:59.194Z,1002.51
2023-05-28T07:19:59.229Z,1002.53
2023-05-28T07:20:59.259Z,1002.52
2023-05-28T07:21:59.192Z,1002.58
2023-05-28T07:22:59.166Z,1002.55
2023-05-28T07:23:59.165Z,1002.58
2023-05-28T07:24:59.137Z,1002.54
2023-05-28T07:26:00.772Z,1002.51
2023-05-28T07:26:59.106Z,1002.50
2023-05-28T07:27:59.137Z,1002.51
2023-05-28T07:28:59.122Z,1002.52
2023-05-28T07:29:59.069Z,1002.52
2023-05-28T07:30:59.075Z,1002.54
2023-05-28T07:31:59.090Z,1002.53
2023-05-28T07:32:59.137Z,1002.54
2023-05-28T07:33:59.074Z,1002.49
2023-05-28T07:34:59.037Z,1002.51
2023-05-28T07:35:59.054Z,1002.52
2023-05-28T07:36:59.011Z,1002.52
2023-05-28T07:37:58.985Z,1002.54
2023-05-28T07:38:59.016Z,1002.46
2023-05-28T07:39:59.020Z,1002.44
2023-05-28T07:40:58.954Z,1002.44
2023-05-28T07:41:59.016Z,1002.46
2023-05-28T07:42:58.935Z,1002.42
2023-05-28T07:43:58.946Z,1002.39
2023-05-28T07:44:58.943Z,1002.42
2023-05-28T07:45:59.005Z,1002.40
2023-05-28T07:46:58.934Z,1002.38
2023-05-28T07:47:58.936Z,1002.37
2023-05-28T07:48:58.878Z,1002.38
2023-05-28T07:49:58.884Z,1002.38
2023-05-28T07:50:58.867Z,1002.35
2023-05-28T07:51:58.843Z,1002.32
2023-05-28T07:52:58.875Z,1002.28
2023-05-28T07:53:58.835Z,1002.33
2023-05-28T07:54:58.822Z,1002.31
2023-05-28T07:55:58.832Z,1002.31
2023-05-28T07:56:58.799Z,1002.29
2023-05-28T07:57:58.850Z,1002.30
2023-05-28T07:58:58.790Z,1002.28
2023-05-28T07:59:58.787Z,1002.30
2023-05-28T08:00:58.760Z,1002.28
2023-05-28T08:01:58.791Z,1002.24
2023-05-28T08:02:58.879Z,1002.24
2023-05-28T08:03:58.917Z,1002.27
2023-05-28T08:04:58.845Z,1002.26
2023-05-28T08:05:58.733Z,1002.21
2023-05-28T08:06:58.693Z,1002.23
2023-05-28T08:07:58.706Z,1002.18
2023-05-28T08:08:58.679Z,1002.17
2023-05-28T08:09:58.665Z,1002.15
2023-05-28T08:10:58.710Z,1002.17
2023-05-28T08:11:58.652Z,1002.10
2023-05-28T08:12:58.622Z,1002.12
2023-05-28T08:13:58.641Z,1002.07
2023-05-28T08:14:58.656Z,1002.07
2023-05-28T08:15:58.676Z,1002.08
2023-05-28T08:16:58.590Z,1002.07
2023-05-28T08:17:58.613Z,1002.03
2023-05-28T08:18:58.572Z,1002.02
2023-05-28T08:20:01.799Z,1002.03
2023-05-28T08:20:58.674Z,1002.00
2023-05-28T08:21:58.545Z,1002.00
2023-05-28T08:22:58.537Z,1002.00
2023-05-28T08:23:58.539Z,1001.98
2023-05-28T08:24:58.505Z,1001.95
2023-05-28T08:25:58.528Z,1001.91
2023-05-28T08:26:58.535Z,1001.94
2023-05-28T08:27:58.475Z,1001.93
2023-05-28T08:28:58.497Z,1001.93
2023-05-28T08:29:58.461Z,1001.91
2023-05-28T08:30:58.578Z,1001.91
2023-05-28T08:31:58.491Z,1001.89
2023-05-28T08:32:58.481Z,1001.86
2023-05-28T08:33:58.427Z,1001.83
2023-05-28T08:34:58.422Z,1001.81
2023-05-28T08:35:58.426Z,1001.84
2023-05-28T08:36:58.407Z,1001.81
2023-05-28T08:37:58.374Z,1001.78
2023-05-28T08:38:58.410Z,1001.79
2023-05-28T08:39:58.394Z,1001.79
2023-05-28T08:40:58.354Z,1001.76
2023-05-28T08:41:58.362Z,1001.74
2023-05-28T08:42:58.329Z,1001.76
2023-05-28T08:43:58.348Z,1001.76
2023-05-28T08:44:58.312Z,1001.75
2023-05-28T08:45:58.307Z,1001.71
2023-05-28T08:46:58.351Z,1001.65
2023-05-28T08:47:58.312Z,1001.63
2023-05-28T08:48:58.310Z,1001.59
2023-05-28T08:49:58.276Z,1001.59
2023-05-28T08:50:58.278Z,1001.53
2023-05-28T08:51:58.256Z,1001.46
2023-05-28T08:52:58.243Z,1001.49
2023-05-28T08:53:58.236Z,1001.42
2023-05-28T08:54:58.233Z,1001.44
2023-05-28T08:55:58.247Z,1001.39
2023-05-28T08:56:58.232Z,1001.44
2023-05-28T08:57:58.208Z,1001.41
2023-05-28T08:58:58.205Z,1001.41
2023-05-28T08:59:58.190Z,1001.45
2023-05-28T09:00:58.211Z,1001.39
2023-05-28T09:01:58.185Z,1001.40
2023-05-28T09:02:58.242Z,1001.38
2023-05-28T09:03:58.184Z,1001.42
2023-05-28T09:04:58.164Z,1001.32
2023-05-28T09:05:58.153Z,1001.37
2023-05-28T09:06:58.126Z,1001.36
2023-05-28T09:07:58.136Z,1001.28
2023-05-28T09:08:58.101Z,1001.29
2023-05-28T09:09:58.102Z,1001.30
2023-05-28T09:10:58.084Z,1001.33
2023-05-28T09:11:58.074Z,1001.29
2023-05-28T09:12:58.070Z,1001.24
2023-05-28T09:13:58.080Z,1001.22
2023-05-28T09:14:58.057Z,1001.24
2023-05-28T09:15:58.049Z,1001.27
2023-05-28T09:16:58.102Z,1001.27
2023-05-28T09:17:58.074Z,1001.26
2023-05-28T09:18:58.040Z,1001.24
2023-05-28T09:19:58.033Z,1001.25
2023-05-28T09:20:57.983Z,1001.32
2023-05-28T09:21:57.981Z,1001.29
2023-05-28T09:22:57.955Z,1001.27
2023-05-28T09:23:57.978Z,1001.25
2023-05-28T09:24:57.946Z,1001.22
2023-05-28T09:25:57.972Z,1001.18
2023-05-28T09:26:57.930Z,1001.18
2023-05-28T09:27:57.911Z,1001.19
2023-05-28T09:28:57.917Z,1001.13
2023-05-28T09:29:57.880Z,1001.10
2023-05-28T09:30:57.936Z,1001.09
2023-05-28T09:31:57.873Z,1001.06
2023-05-28T09:32:57.887Z,1001.11
2023-05-28T09:33:57.883Z,1000.99
2023-05-28T09:34:57.830Z,1001.02
2023-05-28T09:35:57.862Z,1001.02
2023-05-28T09:36:57.806Z,1001.07
2023-05-28T09:37:57.795Z,1001.04
2023-05-28T09:38:57.820Z,1000.99
2023-05-28T09:39:57.787Z,1000.98
2023-05-28T09:40:57.768Z,1000.97
2023-05-28T09:41:57.793Z,1000.99
2023-05-28T09:42:57.769Z,1001.00
2023-05-28T09:43:57.775Z,1001.01
2023-05-28T09:44:57.735Z,1001.02
2023-05-28T09:45:57.779Z,1001.01
2023-05-28T09:46:57.788Z,1000.96
2023-05-28T09:47:57.783Z,1000.94
2023-05-28T09:48:57.711Z,1000.98
2023-05-28T09:49:57.695Z,1000.97
2023-05-28T09:50:57.701Z,1000.98
2023-05-28T09:51:57.688Z,1000.92
2023-05-28T09:52:57.663Z,1000.95
2023-05-28T09:53:57.638Z,1000.93
2023-05-28T09:54:57.669Z,1000.88
2023-05-28T09:55:57.656Z,1000.93
2023-05-28T09:56:57.650Z,1000.92
2023-05-28T09:57:57.624Z,1000.87
2023-05-28T09:58:57.635Z,1000.86
2023-05-28T09:59:57.611Z,1000.85
2023-05-28T10:00:57.617Z,1000.87
2023-05-28T10:01:57.616Z,1000.85
2023-05-28T10:02:57.678Z,1000.89
2023-05-28T10:03:57.751Z,1000.88
2023-05-28T10:04:57.570Z,1000.88
2023-05-28T10:05:57.569Z,1000.86
2023-05-28T10:06:58.525Z,1000.90
2023-05-28T10:07:57.510Z,1000.91
2023-05-28T10:08:57.531Z,1000.87
2023-05-28T10:09:57.532Z,1000.92
2023-05-28T10:10:57.487Z,1000.87
2023-05-28T10:11:57.497Z,1000.85
2023-05-28T10:12:57.474Z,1000.84
2023-05-28T10:13:57.482Z,1000.82
2023-05-28T10:14:57.464Z,1000.88
2023-05-28T10:15:57.751Z,1000.79
2023-05-28T10:16:57.526Z,1000.72
2023-05-28T10:17:57.554Z,1000.77
2023-05-28T10:18:57.415Z,1000.78
2023-05-28T10:19:57.419Z,1000.82
2023-05-28T10:20:57.509Z,1000.82
2023-05-28T10:21:57.395Z,1000.85
2023-05-28T10:22:57.397Z,1000.82
2023-05-28T10:23:57.383Z,1000.80
2023-05-28T10:24:57.376Z,1000.79
2023-05-28T10:25:57.359Z,1000.86
2023-05-28T10:26:57.386Z,1000.80
2023-05-28T10:27:57.380Z,1000.85
2023-05-28T10:28:57.345Z,1000.79
2023-05-28T10:29:57.323Z,1000.79
2023-05-28T10:30:57.313Z,1000.78
2023-05-28T10:31:57.299Z,1000.77
2023-05-28T10:32:57.392Z,1000.69
2023-05-28T10:33:57.457Z,1000.78
2023-05-28T10:34:57.284Z,1000.76
2023-05-28T10:35:57.605Z,1000.79
2023-05-28T10:37:03.118Z,1000.68
2023-05-28T10:37:58.249Z,1000.77
2023-05-28T10:38:57.267Z,1000.71
2023-05-28T10:39:57.234Z,1000.72
2023-05-28T10:40:57.215Z,1000.72
2023-05-28T10:41:57.193Z,1000.73
2023-05-28T10:42:57.210Z,1000.72
2023-05-28T10:43:57.185Z,1000.67
2023-05-28T10:44:57.196Z,1000.70
2023-05-28T10:45:57.183Z,1000.67
2023-05-28T10:46:57.186Z,1000.70
2023-05-28T10:47:57.176Z,1000.72
2023-05-28T10:48:57.170Z,1000.70
2023-05-28T10:50:06.814Z,1000.67
2023-05-28T10:50:58.124Z,1000.70
2023-05-28T10:51:57.120Z,1000.65
2023-05-28T10:52:57.089Z,1000.63
2023-05-28T10:53:58.275Z,1000.64
2023-05-28T10:54:57.096Z,1000.64
2023-05-28T10:55:57.461Z,1000.61
2023-05-28T10:56:57.075Z,1000.60
2023-05-28T10:57:57.075Z,1000.58
2023-05-28T10:58:57.040Z,1000.54
2023-05-28T10:59:57.053Z,1000.49
2023-05-28T11:00:57.075Z,1000.58
2023-05-28T11:01:57.070Z,1000.64
2023-05-28T11:02:57.074Z,1000.66
2023-05-28T11:03:57.077Z,1000.68
2023-05-28T11:04:57.000Z,1000.63
2023-05-28T11:05:56.968Z,1000.63
2023-05-28T11:06:56.953Z,1000.61
2023-05-28T11:07:56.967Z,1000.63
2023-05-28T11:08:56.937Z,1000.59
2023-05-28T11:09:56.947Z,1000.54
2023-05-28T11:10:56.956Z,1000.55
2023-05-28T11:11:56.940Z,1000.56
2023-05-28T11:12:56.908Z,1000.55
2023-05-28T11:13:56.904Z,1000.66
2023-05-28T11:14:56.885Z,1000.63
2023-05-28T11:15:56.922Z,1000.66
2023-05-28T11:16:56.905Z,1000.61
2023-05-28T11:17:56.917Z,1000.63
2023-05-28T11:18:56.843Z,1000.59
2023-05-28T11:19:56.848Z,1000.52
2023-05-28T11:20:56.938Z,1000.54
2023-05-28T11:21:56.828Z,1000.56
2023-05-28T11:22:56.886Z,1000.57
2023-05-28T11:23:56.837Z,1000.57
2023-05-28T11:24:56.856Z,1000.55
2023-05-28T11:26:04.369Z,1000.58
2023-05-28T11:26:57.781Z,1000.62
2023-05-28T11:27:56.768Z,1000.57
2023-05-28T11:28:56.801Z,1000.57
2023-05-28T11:29:56.762Z,1000.61
2023-05-28T11:30:56.821Z,1000.54
2023-05-28T11:31:56.833Z,1000.57
2023-05-28T11:32:56.771Z,1000.56
2023-05-28T11:33:56.750Z,1000.62
2023-05-28T11:34:56.730Z,1000.54
2023-05-28T11:35:56.717Z,1000.58
2023-05-28T11:36:56.690Z,1000.60
2023-05-28T11:37:56.679Z,1000.58
2023-05-28T11:38:56.665Z,1000.62
2023-05-28T11:39:56.664Z,1000.63
2023-05-28T11:40:56.668Z,1000.59
2023-05-28T11:41:56.648Z,1000.56
2023-05-28T11:42:56.623Z,1000.59
2023-05-28T11:43:56.613Z,1000.56
2023-05-28T11:44:56.602Z,1000.57
2023-05-28T11:45:56.618Z,1000.55
2023-05-28T11:46:56.873Z,1000.58
2023-05-28T11:47:56.614Z,1000.53
2023-05-28T11:48:56.585Z,1000.56
2023-05-28T11:49:56.542Z,1000.58
2023-05-28T11:50:56.538Z,1000.67
2023-05-28T11:51:56.549Z,1000.80
2023-05-28T11:52:56.518Z,1000.91
2023-05-28T11:53:56.515Z,1001.00
2023-05-28T11:54:56.509Z,1000.97
2023-05-28T11:55:56.478Z,1000.86
2023-05-28T11:56:56.489Z,1000.82
2023-05-28T11:57:56.609Z,1000.80
2023-05-28T11:58:56.450Z,1000.73
2023-05-28T11:59:56.439Z,1000.74
2023-05-28T12:00:56.469Z,1000.78
2023-05-28T12:01:56.486Z,1000.80
2023-05-28T12:02:56.539Z,1000.72
2023-05-28T12:03:56.503Z,1000.72
2023-05-28T12:04:56.390Z,1000.71